Larsen, Wisconsin
Current Conditions -  °F | °C
As of 11:45 AM on Wednesday 26 Nov 2014 (Local Time) from KATW Reporting Station
Overcast Overcast  
Wind Chill: 17°   Ceiling: 1100
Heat Index: 23°   Visibility: 7mi
Dew Point: 19°   Wind: 5mph
Humidity: 86%   Direction: NA
Pressure: 30.14"   Gusts: NA
Location:  44.19°N, 88.62°W
Report Text: KATW 261745Z VRB04KT 7SM OVC011 M05/M07 A3014
Loading
Personal Weather Stations






























Interactive Weather Map New forecast layout! Learn more

10-Day Weather Forecast

Advertisements
Track Severe Weather on mobile